sensor_id;sensor_type;location;lat;lon;timestamp;P1;durP1;ratioP1;P2;durP2;ratioP2
19016;SDS011;9641;51.494;6.670;2023-10-09T00:01:42;30.13;;;14.03;;
19016;SDS011;9641;51.494;6.670;2023-10-09T00:04:11;26.87;;;13.13;;
19016;SDS011;9641;51.494;6.670;2023-10-09T00:06:39;29.03;;;14.83;;
19016;SDS011;9641;51.494;6.670;2023-10-09T00:09:10;28.87;;;13.20;;
19016;SDS011;9641;51.494;6.670;2023-10-09T00:11:44;28.73;;;13.37;;
19016;SDS011;9641;51.494;6.670;2023-10-09T00:14:11;27.37;;;13.83;;
19016;SDS011;9641;51.494;6.670;2023-10-09T00:16:40;26.80;;;13.77;;
19016;SDS011;9641;51.494;6.670;2023-10-09T00:19:12;27.70;;;14.20;;
19016;SDS011;9641;51.494;6.670;2023-10-09T00:21:44;31.27;;;14.73;;
19016;SDS011;9641;51.494;6.670;2023-10-09T00:24:13;26.37;;;12.67;;
19016;SDS011;9641;51.494;6.670;2023-10-09T00:26:48;27.07;;;13.33;;
19016;SDS011;9641;51.494;6.670;2023-10-09T00:29:16;24.50;;;12.70;;
19016;SDS011;9641;51.494;6.670;2023-10-09T00:31:48;29.27;;;13.60;;
19016;SDS011;9641;51.494;6.670;2023-10-09T00:34:29;28.17;;;13.20;;
19016;SDS011;9641;51.494;6.670;2023-10-09T00:37:04;27.87;;;14.60;;
19016;SDS011;9641;51.494;6.670;2023-10-09T00:39:37;29.30;;;14.10;;
19016;SDS011;9641;51.494;6.670;2023-10-09T00:42:09;24.70;;;13.53;;
19016;SDS011;9641;51.494;6.670;2023-10-09T00:44:47;27.33;;;13.73;;
19016;SDS011;9641;51.494;6.670;2023-10-09T00:47:14;23.20;;;13.67;;
19016;SDS011;9641;51.494;6.670;2023-10-09T00:49:52;26.80;;;14.57;;
19016;SDS011;9641;51.494;6.670;2023-10-09T00:52:25;26.10;;;13.97;;
19016;SDS011;9641;51.494;6.670;2023-10-09T00:54:58;25.07;;;14.60;;
19016;SDS011;9641;51.494;6.670;2023-10-09T00:57:29;26.40;;;14.17;;
19016;SDS011;9641;51.494;6.670;2023-10-09T01:00:03;28.43;;;13.47;;
19016;SDS011;9641;51.494;6.670;2023-10-09T01:02:38;26.00;;;14.20;;
19016;SDS011;9641;51.494;6.670;2023-10-09T01:05:08;25.57;;;13.03;;
19016;SDS011;9641;51.494;6.670;2023-10-09T01:07:44;28.00;;;14.03;;
19016;SDS011;9641;51.494;6.670;2023-10-09T01:10:14;28.37;;;13.70;;
19016;SDS011;9641;51.494;6.670;2023-10-09T01:12:43;24.80;;;13.63;;
19016;SDS011;9641;51.494;6.670;2023-10-09T01:15:13;28.13;;;13.63;;
19016;SDS011;9641;51.494;6.670;2023-10-09T01:18:01;24.20;;;12.70;;
19016;SDS011;9641;51.494;6.670;2023-10-09T01:20:32;20.83;;;12.70;;
19016;SDS011;9641;51.494;6.670;2023-10-09T01:23:09;27.80;;;14.03;;
19016;SDS011;9641;51.494;6.670;2023-10-09T01:25:37;25.20;;;13.00;;
19016;SDS011;9641;51.494;6.670;2023-10-09T01:28:14;27.40;;;12.23;;
19016;SDS011;9641;51.494;6.670;2023-10-09T01:30:43;27.60;;;12.30;;
19016;SDS011;9641;51.494;6.670;2023-10-09T01:33:11;20.93;;;11.90;;
19016;SDS011;9641;51.494;6.670;2023-10-09T01:35:47;21.30;;;11.40;;
19016;SDS011;9641;51.494;6.670;2023-10-09T01:38:18;20.73;;;11.33;;
19016;SDS011;9641;51.494;6.670;2023-10-09T01:40:56;19.90;;;11.67;;
19016;SDS011;9641;51.494;6.670;2023-10-09T01:43:32;20.90;;;11.73;;
19016;SDS011;9641;51.494;6.670;2023-10-09T01:46:01;21.80;;;11.67;;
19016;SDS011;9641;51.494;6.670;2023-10-09T01:48:30;24.87;;;13.03;;
19016;SDS011;9641;51.494;6.670;2023-10-09T01:51:03;20.20;;;11.17;;
19016;SDS011;9641;51.494;6.670;2023-10-09T01:53:35;22.13;;;11.30;;
19016;SDS011;9641;51.494;6.670;2023-10-09T01:56:10;19.63;;;11.07;;
19016;SDS011;9641;51.494;6.670;2023-10-09T01:58:41;21.17;;;11.73;;
19016;SDS011;9641;51.494;6.670;2023-10-09T02:01:12;19.13;;;10.77;;
19016;SDS011;9641;51.494;6.670;2023-10-09T02:03:41;20.33;;;10.60;;
19016;SDS011;9641;51.494;6.670;2023-10-09T02:06:08;20.47;;;10.90;;
19016;SDS011;9641;51.494;6.670;2023-10-09T02:08:53;21.27;;;11.80;;
19016;SDS011;9641;51.494;6.670;2023-10-09T02:11:21;19.17;;;11.00;;
19016;SDS011;9641;51.494;6.670;2023-10-09T02:14:02;18.07;;;11.00;;
19016;SDS011;9641;51.494;6.670;2023-10-09T02:16:42;17.83;;;11.00;;
19016;SDS011;9641;51.494;6.670;2023-10-09T02:19:10;21.60;;;10.67;;
19016;SDS011;9641;51.494;6.670;2023-10-09T02:21:55;17.63;;;10.13;;
19016;SDS011;9641;51.494;6.670;2023-10-09T02:24:54;19.50;;;10.73;;
19016;SDS011;9641;51.494;6.670;2023-10-09T02:27:32;22.00;;;11.20;;
19016;SDS011;9641;51.494;6.670;2023-10-09T02:30:24;20.73;;;11.00;;
19016;SDS011;9641;51.494;6.670;2023-10-09T02:32:55;19.93;;;11.03;;
19016;SDS011;9641;51.494;6.670;2023-10-09T02:35:32;19.47;;;10.97;;
19016;SDS011;9641;51.494;6.670;2023-10-09T02:38:04;18.43;;;10.13;;
19016;SDS011;9641;51.494;6.670;2023-10-09T02:40:50;17.90;;;10.30;;
19016;SDS011;9641;51.494;6.670;2023-10-09T02:43:35;25.87;;;11.40;;
19016;SDS011;9641;51.494;6.670;2023-10-09T02:46:11;19.13;;;11.57;;
19016;SDS011;9641;51.494;6.670;2023-10-09T02:48:44;19.77;;;10.47;;
19016;SDS011;9641;51.494;6.670;2023-10-09T02:51:30;17.03;;;10.33;;
19016;SDS011;9641;51.494;6.670;2023-10-09T02:54:11;21.37;;;10.80;;
19016;SDS011;9641;51.494;6.670;2023-10-09T02:57:00;18.57;;;10.87;;
19016;SDS011;9641;51.494;6.670;2023-10-09T02:59:34;19.23;;;10.00;;
19016;SDS011;9641;51.494;6.670;2023-10-09T03:02:07;14.73;;;10.17;;
19016;SDS011;9641;51.494;6.670;2023-10-09T03:04:36;19.40;;;9.93;;
19016;SDS011;9641;51.494;6.670;2023-10-09T03:07:13;17.60;;;10.10;;
19016;SDS011;9641;51.494;6.670;2023-10-09T03:09:42;17.67;;;10.33;;
19016;SDS011;9641;51.494;6.670;2023-10-09T03:12:14;15.70;;;10.00;;
19016;SDS011;9641;51.494;6.670;2023-10-09T03:14:44;22.60;;;10.73;;
19016;SDS011;9641;51.494;6.670;2023-10-09T03:17:11;18.10;;;10.20;;
19016;SDS011;9641;51.494;6.670;2023-10-09T03:19:39;16.03;;;9.97;;
19016;SDS011;9641;51.494;6.670;2023-10-09T03:22:10;19.63;;;11.00;;
19016;SDS011;9641;51.494;6.670;2023-10-09T03:24:43;19.57;;;10.27;;
19016;SDS011;9641;51.494;6.670;2023-10-09T03:27:11;16.47;;;10.90;;
19016;SDS011;9641;51.494;6.670;2023-10-09T03:29:41;17.57;;;10.20;;
19016;SDS011;9641;51.494;6.670;2023-10-09T03:32:14;19.53;;;9.60;;
19016;SDS011;9641;51.494;6.670;2023-10-09T03:34:42;19.13;;;10.43;;
19016;SDS011;9641;51.494;6.670;2023-10-09T03:37:10;19.00;;;10.00;;
19016;SDS011;9641;51.494;6.670;2023-10-09T03:39:52;21.60;;;9.80;;
19016;SDS011;9641;51.494;6.670;2023-10-09T03:42:28;19.03;;;10.67;;
19016;SDS011;9641;51.494;6.670;2023-10-09T03:44:58;16.63;;;10.27;;
19016;SDS011;9641;51.494;6.670;2023-10-09T03:47:27;17.53;;;9.70;;
19016;SDS011;9641;51.494;6.670;2023-10-09T03:49:54;16.70;;;9.57;;
19016;SDS011;9641;51.494;6.670;2023-10-09T03:52:22;17.13;;;9.63;;
19016;SDS011;9641;51.494;6.670;2023-10-09T03:54:52;19.10;;;10.60;;
19016;SDS011;9641;51.494;6.670;2023-10-09T03:57:19;20.97;;;9.80;;
19016;SDS011;9641;51.494;6.670;2023-10-09T03:59:49;21.67;;;8.83;;
19016;SDS011;9641;51.494;6.670;2023-10-09T04:02:17;14.27;;;9.63;;
19016;SDS011;9641;51.494;6.670;2023-10-09T04:04:44;20.10;;;9.70;;
19016;SDS011;9641;51.494;6.670;2023-10-09T04:07:12;14.90;;;9.70;;
19016;SDS011;9641;51.494;6.670;2023-10-09T04:09:41;22.77;;;9.83;;
19016;SDS011;9641;51.494;6.670;2023-10-09T04:12:12;17.10;;;10.23;;
19016;SDS011;9641;51.494;6.670;2023-10-09T04:14:49;16.67;;;9.00;;
19016;SDS011;9641;51.494;6.670;2023-10-09T04:17:20;19.23;;;9.67;;
19016;SDS011;9641;51.494;6.670;2023-10-09T04:20:00;18.33;;;9.90;;
19016;SDS011;9641;51.494;6.670;2023-10-09T04:22:56;17.67;;;9.63;;
19016;SDS011;9641;51.494;6.670;2023-10-09T04:25:30;19.77;;;10.00;;
19016;SDS011;9641;51.494;6.670;2023-10-09T04:28:07;16.43;;;9.97;;
19016;SDS011;9641;51.494;6.670;2023-10-09T04:30:38;15.77;;;9.10;;
19016;SDS011;9641;51.494;6.670;2023-10-09T04:33:08;18.63;;;9.30;;
19016;SDS011;9641;51.494;6.670;2023-10-09T04:35:53;16.53;;;9.60;;
19016;SDS011;9641;51.494;6.670;2023-10-09T04:38:34;19.17;;;9.73;;
19016;SDS011;9641;51.494;6.670;2023-10-09T04:41:04;17.57;;;9.53;;
19016;SDS011;9641;51.494;6.670;2023-10-09T04:43:33;15.57;;;9.33;;
19016;SDS011;9641;51.494;6.670;2023-10-09T04:46:00;17.33;;;9.43;;
19016;SDS011;9641;51.494;6.670;2023-10-09T04:48:37;18.53;;;9.13;;
19016;SDS011;9641;51.494;6.670;2023-10-09T04:51:05;16.57;;;9.13;;
19016;SDS011;9641;51.494;6.670;2023-10-09T04:53:59;15.23;;;9.00;;
19016;SDS011;9641;51.494;6.670;2023-10-09T04:56:38;14.47;;;9.30;;
19016;SDS011;9641;51.494;6.670;2023-10-09T04:59:17;18.77;;;9.90;;
19016;SDS011;9641;51.494;6.670;2023-10-09T05:01:51;16.17;;;8.93;;
19016;SDS011;9641;51.494;6.670;2023-10-09T05:04:24;17.17;;;9.23;;
19016;SDS011;9641;51.494;6.670;2023-10-09T05:07:04;18.10;;;9.90;;
19016;SDS011;9641;51.494;6.670;2023-10-09T05:09:46;18.07;;;9.73;;
19016;SDS011;9641;51.494;6.670;2023-10-09T05:12:30;14.47;;;9.23;;
19016;SDS011;9641;51.494;6.670;2023-10-09T05:14:56;16.17;;;8.80;;
19016;SDS011;9641;51.494;6.670;2023-10-09T05:17:35;22.23;;;9.40;;
19016;SDS011;9641;51.494;6.670;2023-10-09T05:20:04;16.50;;;9.30;;
19016;SDS011;9641;51.494;6.670;2023-10-09T05:22:49;20.67;;;10.20;;
19016;SDS011;9641;51.494;6.670;2023-10-09T05:25:24;19.63;;;9.20;;
19016;SDS011;9641;51.494;6.670;2023-10-09T05:28:20;15.07;;;9.00;;
19016;SDS011;9641;51.494;6.670;2023-10-09T05:31:14;16.83;;;9.07;;
19016;SDS011;9641;51.494;6.670;2023-10-09T05:34:04;22.07;;;10.17;;
19016;SDS011;9641;51.494;6.670;2023-10-09T05:36:32;17.53;;;9.70;;
19016;SDS011;9641;51.494;6.670;2023-10-09T05:39:00;16.10;;;9.63;;
19016;SDS011;9641;51.494;6.670;2023-10-09T05:41:44;13.07;;;8.87;;
19016;SDS011;9641;51.494;6.670;2023-10-09T05:44:17;18.27;;;10.73;;
19016;SDS011;9641;51.494;6.670;2023-10-09T05:47:02;16.70;;;9.30;;
19016;SDS011;9641;51.494;6.670;2023-10-09T05:49:48;12.30;;;8.40;;
19016;SDS011;9641;51.494;6.670;2023-10-09T05:52:44;15.93;;;8.73;;
19016;SDS011;9641;51.494;6.670;2023-10-09T05:55:32;15.37;;;8.83;;
19016;SDS011;9641;51.494;6.670;2023-10-09T05:58:16;16.47;;;9.57;;
19016;SDS011;9641;51.494;6.670;2023-10-09T06:01:01;18.20;;;10.00;;
19016;SDS011;9641;51.494;6.670;2023-10-09T06:03:45;12.43;;;8.53;;
19016;SDS011;9641;51.494;6.670;2023-10-09T06:06:21;14.10;;;8.70;;
19016;SDS011;9641;51.494;6.670;2023-10-09T06:09:05;18.03;;;8.83;;
19016;SDS011;9641;51.494;6.670;2023-10-09T06:11:54;13.40;;;8.77;;
19016;SDS011;9641;51.494;6.670;2023-10-09T06:14:37;16.73;;;9.20;;
19016;SDS011;9641;51.494;6.670;2023-10-09T06:17:24;17.23;;;10.10;;
19016;SDS011;9641;51.494;6.670;2023-10-09T06:19:55;14.23;;;8.57;;
19016;SDS011;9641;51.494;6.670;2023-10-09T06:22:47;18.50;;;10.23;;
19016;SDS011;9641;51.494;6.670;2023-10-09T06:25:21;17.77;;;10.23;;
19016;SDS011;9641;51.494;6.670;2023-10-09T06:27:57;18.60;;;10.03;;
19016;SDS011;9641;51.494;6.670;2023-10-09T06:30:24;23.07;;;10.80;;
19016;SDS011;9641;51.494;6.670;2023-10-09T06:32:54;17.27;;;10.57;;
19016;SDS011;9641;51.494;6.670;2023-10-09T06:35:33;18.63;;;11.43;;
19016;SDS011;9641;51.494;6.670;2023-10-09T06:38:02;18.57;;;10.93;;
19016;SDS011;9641;51.494;6.670;2023-10-09T06:40:48;19.03;;;11.03;;
19016;SDS011;9641;51.494;6.670;2023-10-09T06:43:33;19.50;;;10.63;;
19016;SDS011;9641;51.494;6.670;2023-10-09T06:46:13;21.03;;;11.30;;
19016;SDS011;9641;51.494;6.670;2023-10-09T06:49:10;19.83;;;10.60;;
19016;SDS011;9641;51.494;6.670;2023-10-09T06:51:54;23.20;;;11.33;;
19016;SDS011;9641;51.494;6.670;2023-10-09T06:54:28;23.47;;;11.50;;
19016;SDS011;9641;51.494;6.670;2023-10-09T06:57:03;18.00;;;9.67;;
19016;SDS011;9641;51.494;6.670;2023-10-09T06:59:41;17.27;;;10.40;;
19016;SDS011;9641;51.494;6.670;2023-10-09T07:02:27;20.23;;;10.83;;
19016;SDS011;9641;51.494;6.670;2023-10-09T07:05:13;17.80;;;11.17;;
19016;SDS011;9641;51.494;6.670;2023-10-09T07:07:55;15.83;;;10.67;;
19016;SDS011;9641;51.494;6.670;2023-10-09T07:10:52;16.80;;;10.10;;
19016;SDS011;9641;51.494;6.670;2023-10-09T07:13:38;20.43;;;9.53;;
19016;SDS011;9641;51.494;6.670;2023-10-09T07:16:22;16.30;;;10.00;;
19016;SDS011;9641;51.494;6.670;2023-10-09T07:18:52;20.20;;;10.80;;
19016;SDS011;9641;51.494;6.670;2023-10-09T07:21:35;16.60;;;10.37;;
19016;SDS011;9641;51.494;6.670;2023-10-09T07:27:25;26.77;;;12.10;;
19016;SDS011;9641;51.494;6.670;2023-10-09T09:04:46;25.13;;;12.60;;
19016;SDS011;9641;51.494;6.670;2023-10-09T09:07:24;24.23;;;12.23;;
19016;SDS011;9641;51.494;6.670;2023-10-09T09:09:56;17.67;;;11.53;;
19016;SDS011;9641;51.494;6.670;2023-10-09T09:12:29;20.47;;;12.17;;
19016;SDS011;9641;51.494;6.670;2023-10-09T09:15:03;19.43;;;11.67;;
19016;SDS011;9641;51.494;6.670;2023-10-09T09:20:21;19.80;;;11.47;;
19016;SDS011;9641;51.494;6.670;2023-10-09T09:22:52;19.23;;;10.77;;
19016;SDS011;9641;51.494;6.670;2023-10-09T09:25:22;21.92;;;11.43;;
19016;SDS011;9641;51.494;6.670;2023-10-09T09:27:51;20.33;;;11.80;;
19016;SDS011;9641;51.494;6.670;2023-10-09T09:30:25;20.27;;;11.40;;
19016;SDS011;9641;51.494;6.670;2023-10-09T09:35:41;20.63;;;12.10;;
19016;SDS011;9641;51.494;6.670;2023-10-09T09:41:25;21.00;;;11.43;;
19016;SDS011;9641;51.494;6.670;2023-10-09T09:43:53;19.30;;;11.27;;
19016;SDS011;9641;51.494;6.670;2023-10-09T09:46:22;22.73;;;12.57;;
19016;SDS011;9641;51.494;6.670;2023-10-09T09:48:57;20.60;;;11.80;;
19016;SDS011;9641;51.494;6.670;2023-10-09T09:51:28;18.35;;;11.05;;
19016;SDS011;9641;51.494;6.670;2023-10-09T09:53:56;19.58;;;11.65;;
19016;SDS011;9641;51.494;6.670;2023-10-09T09:56:24;19.75;;;10.75;;
19016;SDS011;9641;51.494;6.670;2023-10-09T09:58:52;21.38;;;11.40;;
19016;SDS011;9641;51.494;6.670;2023-10-09T10:01:24;22.20;;;10.40;;
19016;SDS011;9641;51.494;6.670;2023-10-09T10:03:56;20.55;;;11.20;;
19016;SDS011;9641;51.494;6.670;2023-10-09T10:06:31;15.93;;;10.03;;
19016;SDS011;9641;51.494;6.670;2023-10-09T10:09:00;18.08;;;10.02;;
19016;SDS011;9641;51.494;6.670;2023-10-09T10:11:41;18.30;;;10.02;;
19016;SDS011;9641;51.494;6.670;2023-10-09T10:14:09;18.65;;;9.88;;
19016;SDS011;9641;51.494;6.670;2023-10-09T10:17:03;18.73;;;11.25;;
19016;SDS011;9641;51.494;6.670;2023-10-09T10:23:13;23.23;;;11.05;;
19016;SDS011;9641;51.494;6.670;2023-10-09T10:29:32;19.95;;;10.75;;
19016;SDS011;9641;51.494;6.670;2023-10-09T10:32:07;25.20;;;11.68;;
19016;SDS011;9641;51.494;6.670;2023-10-09T10:34:52;23.05;;;11.70;;
19016;SDS011;9641;51.494;6.670;2023-10-09T10:37:23;21.95;;;11.32;;
19016;SDS011;9641;51.494;6.670;2023-10-09T10:40:10;15.90;;;10.23;;
19016;SDS011;9641;51.494;6.670;2023-10-09T10:42:59;19.92;;;11.68;;
19016;SDS011;9641;51.494;6.670;2023-10-09T10:45:35;19.15;;;12.30;;
19016;SDS011;9641;51.494;6.670;2023-10-09T10:48:15;20.60;;;11.70;;
19016;SDS011;9641;51.494;6.670;2023-10-09T10:50:51;21.63;;;12.23;;
19016;SDS011;9641;51.494;6.670;2023-10-09T10:53:27;17.95;;;11.20;;
19016;SDS011;9641;51.494;6.670;2023-10-09T10:56:02;19.20;;;12.05;;
19016;SDS011;9641;51.494;6.670;2023-10-09T10:58:51;19.83;;;11.73;;
19016;SDS011;9641;51.494;6.670;2023-10-09T11:01:33;21.50;;;12.25;;
19016;SDS011;9641;51.494;6.670;2023-10-09T11:04:25;22.08;;;11.95;;
19016;SDS011;9641;51.494;6.670;2023-10-09T11:07:04;20.80;;;12.82;;
19016;SDS011;9641;51.494;6.670;2023-10-09T11:09:45;18.05;;;11.18;;
19016;SDS011;9641;51.494;6.670;2023-10-09T11:12:48;17.77;;;11.82;;
19016;SDS011;9641;51.494;6.670;2023-10-09T11:15:42;24.05;;;12.77;;
19016;SDS011;9641;51.494;6.670;2023-10-09T11:18:23;25.80;;;13.63;;
19016;SDS011;9641;51.494;6.670;2023-10-09T11:20:53;22.75;;;12.10;;
19016;SDS011;9641;51.494;6.670;2023-10-09T11:23:43;21.73;;;12.40;;
19016;SDS011;9641;51.494;6.670;2023-10-09T11:26:23;18.27;;;11.80;;
19016;SDS011;9641;51.494;6.670;2023-10-09T11:29:10;25.20;;;12.35;;
19016;SDS011;9641;51.494;6.670;2023-10-09T11:31:41;18.23;;;11.43;;
19016;SDS011;9641;51.494;6.670;2023-10-09T11:34:25;19.10;;;11.57;;
19016;SDS011;9641;51.494;6.670;2023-10-09T11:36:59;20.75;;;11.45;;
19016;SDS011;9641;51.494;6.670;2023-10-09T11:39:28;21.08;;;11.40;;
19016;SDS011;9641;51.494;6.670;2023-10-09T11:46:13;20.98;;;12.85;;
19016;SDS011;9641;51.494;6.670;2023-10-09T11:49:05;23.38;;;12.32;;
19016;SDS011;9641;51.494;6.670;2023-10-09T11:52:12;22.30;;;12.52;;
19016;SDS011;9641;51.494;6.670;2023-10-09T11:54:57;21.00;;;12.48;;
19016;SDS011;9641;51.494;6.670;2023-10-09T11:57:25;21.73;;;12.02;;
19016;SDS011;9641;51.494;6.670;2023-10-09T12:07:34;17.90;;;9.90;;
19016;SDS011;9641;51.494;6.670;2023-10-09T12:10:04;19.08;;;10.73;;
19016;SDS011;9641;51.494;6.670;2023-10-09T12:12:35;21.55;;;12.25;;
19016;SDS011;9641;51.494;6.670;2023-10-09T12:15:03;22.30;;;13.00;;
19016;SDS011;9641;51.494;6.670;2023-10-09T12:17:31;22.40;;;12.40;;
19016;SDS011;9641;51.494;6.670;2023-10-09T12:19:58;16.88;;;10.80;;
19016;SDS011;9641;51.494;6.670;2023-10-09T12:22:25;18.73;;;12.35;;
19016;SDS011;9641;51.494;6.670;2023-10-09T12:24:54;23.02;;;13.02;;
19016;SDS011;9641;51.494;6.670;2023-10-09T12:27:21;25.35;;;12.25;;
19016;SDS011;9641;51.494;6.670;2023-10-09T12:29:48;23.17;;;12.80;;
19016;SDS011;9641;51.494;6.670;2023-10-09T12:32:15;22.80;;;12.32;;
19016;SDS011;9641;51.494;6.670;2023-10-09T12:34:45;21.63;;;12.98;;
19016;SDS011;9641;51.494;6.670;2023-10-09T12:37:15;23.55;;;12.95;;
19016;SDS011;9641;51.494;6.670;2023-10-09T12:39:46;20.65;;;11.98;;
19016;SDS011;9641;51.494;6.670;2023-10-09T12:42:14;22.02;;;12.50;;
19016;SDS011;9641;51.494;6.670;2023-10-09T12:44:42;24.77;;;12.57;;
19016;SDS011;9641;51.494;6.670;2023-10-09T12:47:09;22.63;;;11.98;;
19016;SDS011;9641;51.494;6.670;2023-10-09T12:49:37;28.83;;;12.75;;
19016;SDS011;9641;51.494;6.670;2023-10-09T12:52:06;23.13;;;13.00;;
19016;SDS011;9641;51.494;6.670;2023-10-09T12:54:41;24.40;;;13.02;;
19016;SDS011;9641;51.494;6.670;2023-10-09T12:57:08;22.77;;;12.65;;
19016;SDS011;9641;51.494;6.670;2023-10-09T12:59:40;18.60;;;12.05;;
19016;SDS011;9641;51.494;6.670;2023-10-09T13:02:11;20.83;;;12.90;;
19016;SDS011;9641;51.494;6.670;2023-10-09T13:04:38;20.02;;;12.05;;
19016;SDS011;9641;51.494;6.670;2023-10-09T13:07:07;21.55;;;11.63;;
19016;SDS011;9641;51.494;6.670;2023-10-09T13:09:34;21.80;;;13.57;;
19016;SDS011;9641;51.494;6.670;2023-10-09T13:12:07;20.38;;;12.90;;
19016;SDS011;9641;51.494;6.670;2023-10-09T13:14:37;19.02;;;12.88;;
19016;SDS011;9641;51.494;6.670;2023-10-09T13:17:08;22.70;;;12.80;;
19016;SDS011;9641;51.494;6.670;2023-10-09T13:19:35;23.30;;;13.15;;
19016;SDS011;9641;51.494;6.670;2023-10-09T13:22:02;19.10;;;12.18;;
19016;SDS011;9641;51.494;6.670;2023-10-09T13:24:38;23.60;;;12.75;;
19016;SDS011;9641;51.494;6.670;2023-10-09T13:27:05;19.27;;;11.40;;
19016;SDS011;9641;51.494;6.670;2023-10-09T13:29:35;21.65;;;12.77;;
19016;SDS011;9641;51.494;6.670;2023-10-09T13:32:05;19.33;;;12.32;;
19016;SDS011;9641;51.494;6.670;2023-10-09T13:34:39;27.85;;;14.93;;
19016;SDS011;9641;51.494;6.670;2023-10-09T13:37:10;23.35;;;12.82;;
19016;SDS011;9641;51.494;6.670;2023-10-09T13:39:38;20.05;;;12.25;;
19016;SDS011;9641;51.494;6.670;2023-10-09T13:42:17;20.27;;;13.40;;
19016;SDS011;9641;51.494;6.670;2023-10-09T13:44:44;24.92;;;12.95;;
19016;SDS011;9641;51.494;6.670;2023-10-09T13:47:15;22.35;;;13.32;;
19016;SDS011;9641;51.494;6.670;2023-10-09T13:49:46;23.33;;;13.55;;
19016;SDS011;9641;51.494;6.670;2023-10-09T13:52:15;22.33;;;14.50;;
19016;SDS011;9641;51.494;6.670;2023-10-09T13:54:43;21.00;;;14.80;;
19016;SDS011;9641;51.494;6.670;2023-10-09T13:57:13;24.52;;;13.70;;
19016;SDS011;9641;51.494;6.670;2023-10-09T13:59:42;24.45;;;13.48;;
19016;SDS011;9641;51.494;6.670;2023-10-09T14:02:15;25.80;;;14.40;;
19016;SDS011;9641;51.494;6.670;2023-10-09T14:04:46;21.75;;;13.55;;
19016;SDS011;9641;51.494;6.670;2023-10-09T14:07:13;26.92;;;14.35;;
19016;SDS011;9641;51.494;6.670;2023-10-09T14:09:42;25.58;;;15.05;;
19016;SDS011;9641;51.494;6.670;2023-10-09T14:12:21;23.77;;;14.23;;
19016;SDS011;9641;51.494;6.670;2023-10-09T14:14:49;26.10;;;14.68;;
19016;SDS011;9641;51.494;6.670;2023-10-09T14:17:21;29.40;;;15.45;;
19016;SDS011;9641;51.494;6.670;2023-10-09T14:19:53;27.58;;;15.93;;
19016;SDS011;9641;51.494;6.670;2023-10-09T14:22:26;27.55;;;15.80;;
19016;SDS011;9641;51.494;6.670;2023-10-09T14:24:55;19.58;;;13.48;;
19016;SDS011;9641;51.494;6.670;2023-10-09T14:27:22;20.75;;;13.00;;
19016;SDS011;9641;51.494;6.670;2023-10-09T14:29:51;23.92;;;14.20;;
19016;SDS011;9641;51.494;6.670;2023-10-09T14:32:23;22.75;;;12.82;;
19016;SDS011;9641;51.494;6.670;2023-10-09T14:34:54;25.33;;;15.00;;
19016;SDS011;9641;51.494;6.670;2023-10-09T14:37:26;25.42;;;15.73;;
19016;SDS011;9641;51.494;6.670;2023-10-09T14:39:53;21.42;;;12.50;;
19016;SDS011;9641;51.494;6.670;2023-10-09T14:42:21;27.40;;;15.15;;
19016;SDS011;9641;51.494;6.670;2023-10-09T14:50:18;23.52;;;14.30;;
19016;SDS011;9641;51.494;6.670;2023-10-09T14:52:47;27.75;;;15.77;;
19016;SDS011;9641;51.494;6.670;2023-10-09T14:55:15;25.08;;;15.10;;
19016;SDS011;9641;51.494;6.670;2023-10-09T15:08:35;26.77;;;14.73;;
19016;SDS011;9641;51.494;6.670;2023-10-09T15:11:05;23.95;;;14.25;;
19016;SDS011;9641;51.494;6.670;2023-10-09T15:13:32;23.90;;;14.93;;
19016;SDS011;9641;51.494;6.670;2023-10-09T15:16:00;26.13;;;15.93;;
19016;SDS011;9641;51.494;6.670;2023-10-09T15:18:29;23.83;;;14.93;;
19016;SDS011;9641;51.494;6.670;2023-10-09T15:20:58;27.50;;;15.18;;
19016;SDS011;9641;51.494;6.670;2023-10-09T15:23:25;22.67;;;12.30;;
19016;SDS011;9641;51.494;6.670;2023-10-09T15:25:56;26.90;;;13.63;;
19016;SDS011;9641;51.494;6.670;2023-10-09T15:28:23;28.58;;;15.25;;
19016;SDS011;9641;51.494;6.670;2023-10-09T15:30:55;26.08;;;14.68;;
19016;SDS011;9641;51.494;6.670;2023-10-09T15:33:22;23.75;;;13.57;;
19016;SDS011;9641;51.494;6.670;2023-10-09T15:35:51;20.15;;;12.25;;
19016;SDS011;9641;51.494;6.670;2023-10-09T15:38:19;25.77;;;13.55;;
19016;SDS011;9641;51.494;6.670;2023-10-09T15:40:46;26.38;;;13.40;;
19016;SDS011;9641;51.494;6.670;2023-10-09T15:43:14;22.77;;;13.40;;
19016;SDS011;9641;51.494;6.670;2023-10-09T15:45:42;22.75;;;13.23;;
19016;SDS011;9641;51.494;6.670;2023-10-09T15:48:13;25.25;;;12.23;;
19016;SDS011;9641;51.494;6.670;2023-10-09T15:50:44;28.70;;;14.02;;
19016;SDS011;9641;51.494;6.670;2023-10-09T15:53:13;23.80;;;13.20;;
19016;SDS011;9641;51.494;6.670;2023-10-09T15:55:42;23.45;;;12.68;;
19016;SDS011;9641;51.494;6.670;2023-10-09T15:58:09;25.27;;;12.63;;
19016;SDS011;9641;51.494;6.670;2023-10-09T16:00:38;20.17;;;11.55;;
19016;SDS011;9641;51.494;6.670;2023-10-09T16:03:06;23.70;;;12.75;;
19016;SDS011;9641;51.494;6.670;2023-10-09T16:05:35;22.65;;;12.25;;
19016;SDS011;9641;51.494;6.670;2023-10-09T16:08:02;22.02;;;12.98;;
19016;SDS011;9641;51.494;6.670;2023-10-09T16:10:30;20.27;;;11.35;;
19016;SDS011;9641;51.494;6.670;2023-10-09T16:12:59;22.30;;;12.48;;
19016;SDS011;9641;51.494;6.670;2023-10-09T16:15:27;24.15;;;13.23;;
19016;SDS011;9641;51.494;6.670;2023-10-09T16:17:56;24.30;;;12.75;;
19016;SDS011;9641;51.494;6.670;2023-10-09T16:20:31;27.58;;;13.48;;
19016;SDS011;9641;51.494;6.670;2023-10-09T16:22:58;20.85;;;12.15;;
19016;SDS011;9641;51.494;6.670;2023-10-09T16:25:29;19.73;;;11.63;;
19016;SDS011;9641;51.494;6.670;2023-10-09T16:27:59;27.90;;;13.05;;
19016;SDS011;9641;51.494;6.670;2023-10-09T16:30:30;21.63;;;12.98;;
19016;SDS011;9641;51.494;6.670;2023-10-09T16:32:58;24.95;;;11.82;;
19016;SDS011;9641;51.494;6.670;2023-10-09T16:35:26;22.52;;;11.80;;
19016;SDS011;9641;51.494;6.670;2023-10-09T16:37:53;24.30;;;11.98;;
19016;SDS011;9641;51.494;6.670;2023-10-09T16:40:20;21.00;;;11.27;;
19016;SDS011;9641;51.494;6.670;2023-10-09T16:42:47;16.27;;;10.68;;
19016;SDS011;9641;51.494;6.670;2023-10-09T16:45:26;23.52;;;12.00;;
19016;SDS011;9641;51.494;6.670;2023-10-09T16:47:53;21.25;;;11.80;;
19016;SDS011;9641;51.494;6.670;2023-10-09T16:50:25;16.70;;;10.32;;
19016;SDS011;9641;51.494;6.670;2023-10-09T16:52:53;18.55;;;9.75;;
19016;SDS011;9641;51.494;6.670;2023-10-09T16:55:20;18.05;;;9.85;;
19016;SDS011;9641;51.494;6.670;2023-10-09T16:57:50;18.35;;;9.70;;
19016;SDS011;9641;51.494;6.670;2023-10-09T17:00:18;20.98;;;9.73;;
19016;SDS011;9641;51.494;6.670;2023-10-09T17:02:53;20.23;;;9.75;;
19016;SDS011;9641;51.494;6.670;2023-10-09T17:05:21;17.23;;;9.70;;
19016;SDS011;9641;51.494;6.670;2023-10-09T17:07:54;17.98;;;9.68;;
19016;SDS011;9641;51.494;6.670;2023-10-09T17:10:21;18.05;;;9.38;;
19016;SDS011;9641;51.494;6.670;2023-10-09T17:12:51;16.08;;;9.55;;
19016;SDS011;9641;51.494;6.670;2023-10-09T17:15:18;16.27;;;10.00;;
19016;SDS011;9641;51.494;6.670;2023-10-09T17:17:46;19.88;;;10.57;;
19016;SDS011;9641;51.494;6.670;2023-10-09T17:20:16;17.15;;;9.38;;
19016;SDS011;9641;51.494;6.670;2023-10-09T17:22:46;18.92;;;10.38;;
19016;SDS011;9641;51.494;6.670;2023-10-09T17:25:15;24.08;;;11.38;;
19016;SDS011;9641;51.494;6.670;2023-10-09T17:27:43;16.05;;;9.10;;
19016;SDS011;9641;51.494;6.670;2023-10-09T17:30:11;21.85;;;11.82;;
19016;SDS011;9641;51.494;6.670;2023-10-09T17:32:43;28.05;;;16.40;;
19016;SDS011;9641;51.494;6.670;2023-10-09T17:35:11;28.17;;;14.15;;
19016;SDS011;9641;51.494;6.670;2023-10-09T17:37:38;28.20;;;15.88;;
19016;SDS011;9641;51.494;6.670;2023-10-09T17:40:07;31.75;;;16.70;;